createdAt,value
2022-09-02T00:03:00.488Z,100389.28
2022-09-02T00:06:03.850Z,100400.03
2022-09-02T00:09:08.255Z,100396.81
2022-09-02T00:12:11.063Z,100392.75
2022-09-02T00:15:13.511Z,100387.69
2022-09-02T00:18:18.114Z,100386.72
2022-09-02T00:21:21.750Z,100379.56
2022-09-02T00:24:25.940Z,100380.16
2022-09-02T00:27:28.135Z,100377.50
2022-09-02T00:30:30.841Z,100379.87
2022-09-02T00:33:33.386Z,100382.38
2022-09-02T00:36:37.808Z,100389.06
2022-09-02T00:39:40.428Z,100375.25
2022-09-02T00:42:43.171Z,100381.12
2022-09-02T00:45:45.328Z,100377.75
2022-09-02T00:48:55.663Z,100370.38
2022-09-02T00:52:29.941Z,100365.91
2022-09-02T00:55:41.268Z,100366.19
2022-09-02T00:58:43.527Z,100370.66
2022-09-02T01:01:46.405Z,100366.44
2022-09-02T01:04:48.706Z,100367.25
2022-09-02T01:07:54.251Z,100361.97
2022-09-02T01:10:57.266Z,100368.09
2022-09-02T01:13:59.696Z,100362.37
2022-09-02T01:17:02.572Z,100368.78
2022-09-02T01:20:12.020Z,100363.78
2022-09-02T01:23:17.011Z,100364.78
2022-09-02T01:26:20.811Z,100368.38
2022-09-02T01:29:24.394Z,100363.63
2022-09-02T01:32:29.980Z,100369.22
2022-09-02T01:35:32.486Z,100363.78
2022-09-02T01:38:35.055Z,100364.06
2022-09-02T01:41:38.209Z,100361.41
2022-09-02T01:44:44.103Z,100356.69
2022-09-02T01:47:46.590Z,100360.22
2022-09-02T01:51:01.151Z,100364.69
2022-09-02T01:54:03.831Z,100366.22
2022-09-02T01:57:06.354Z,100372.41
2022-09-02T02:00:11.868Z,100360.53
2022-09-02T02:03:15.216Z,100350.31
2022-09-02T02:06:18.030Z,100350.88
2022-09-02T02:09:20.635Z,100349.59
2022-09-02T02:12:23.367Z,100348.47
2022-09-02T02:18:27.663Z,100347.94
2022-09-02T02:21:30.017Z,100344.84
2022-09-02T02:24:32.682Z,100350.72
2022-09-02T02:27:36.293Z,100341.22
2022-09-02T02:30:42.886Z,100339.56
2022-09-02T02:33:45.298Z,100343.34
2022-09-02T02:36:47.953Z,100340.72
2022-09-02T02:39:50.221Z,100343.50
2022-09-02T02:42:53.768Z,100345.44
2022-09-02T02:45:56.287Z,100333.47
2022-09-02T02:49:00.120Z,100334.84
2022-09-02T02:52:02.480Z,100334.31
2022-09-02T02:55:06.463Z,100334.03
2022-09-02T02:58:08.658Z,100340.72
2022-09-02T03:01:11.239Z,100336.81
2022-09-02T03:04:13.503Z,100344.94
2022-09-02T03:07:15.959Z,100342.28
2022-09-02T03:10:18.536Z,100341.44
2022-09-02T03:13:25.499Z,100348.16
2022-09-02T03:16:29.532Z,100332.81
2022-09-02T03:19:32.094Z,100326.25
2022-09-02T03:22:38.739Z,100334.50
2022-09-02T03:25:44.021Z,100333.53
2022-09-02T03:28:49.383Z,100339.66
2022-09-02T03:31:53.358Z,100338.97
2022-09-02T03:34:56.856Z,100335.75
2022-09-02T03:38:00.987Z,100343.84
2022-09-02T03:41:04.216Z,100337.00
2022-09-02T03:44:07.814Z,100342.31
2022-09-02T03:47:10.067Z,100335.31
2022-09-02T03:50:12.695Z,100338.69
2022-09-02T03:53:19.400Z,100334.50
2022-09-02T03:56:22.994Z,100334.50
2022-09-02T03:59:25.268Z,100335.22
2022-09-02T04:02:27.874Z,100337.03
2022-09-02T04:05:31.762Z,100329.91
2022-09-02T04:08:34.144Z,100338.13
2022-09-02T04:11:42.634Z,100334.78
2022-09-02T04:14:45.273Z,100327.25
2022-09-02T04:17:47.931Z,100331.44
2022-09-02T04:20:50.487Z,100332.13
2022-09-02T04:23:53.933Z,100332.69
2022-09-02T04:27:00.617Z,100334.22
2022-09-02T04:30:09.490Z,100339.66
2022-09-02T04:33:13.623Z,100339.50
2022-09-02T04:36:18.156Z,100329.06
2022-09-02T04:39:23.094Z,100339.22
2022-09-02T04:42:27.765Z,100339.22
2022-09-02T04:45:30.108Z,100344.84
2022-09-02T04:48:33.934Z,100347.75
2022-09-02T04:51:36.236Z,100341.59
2022-09-02T04:54:39.203Z,100350.81
2022-09-02T04:57:42.436Z,100347.84
2022-09-02T05:00:45.170Z,100350.88
2022-09-02T05:03:48.908Z,100349.06
2022-09-02T05:06:51.477Z,100355.16
2022-09-02T05:09:59.075Z,100355.37
2022-09-02T05:13:02.066Z,100360.78
2022-09-02T05:16:04.996Z,100365.06
2022-09-02T05:19:09.951Z,100362.28
2022-09-02T05:22:12.608Z,100358.63
2022-09-02T05:25:15.760Z,100363.91
2022-09-02T05:28:19.470Z,100364.53
2022-09-02T05:31:22.620Z,100359.75
2022-09-02T05:34:25.125Z,100376.13
2022-09-02T05:37:28.153Z,100369.56
2022-09-02T05:40:30.520Z,100366.03
2022-09-02T05:43:38.010Z,100373.34
2022-09-02T05:46:40.214Z,100362.16
2022-09-02T05:49:43.342Z,100364.16
2022-09-02T05:52:45.981Z,100366.19
2022-09-02T05:55:48.864Z,100361.38
2022-09-02T05:58:51.994Z,100356.38
2022-09-02T06:01:55.155Z,100359.19
2022-09-02T06:04:57.908Z,100368.31
2022-09-02T06:08:00.284Z,100364.78
2022-09-02T06:11:04.041Z,100362.75
2022-09-02T06:14:07.994Z,100365.69
2022-09-02T06:17:10.790Z,100366.31
2022-09-02T06:20:14.242Z,100368.81
2022-09-02T06:23:18.129Z,100363.88
2022-09-02T06:26:20.625Z,100373.19
2022-09-02T06:29:25.651Z,100377.41
2022-09-02T06:32:28.377Z,100379.19
2022-09-02T06:35:34.724Z,100379.69
2022-09-02T06:38:45.608Z,100382.41
2022-09-02T06:41:49.148Z,100381.91
2022-09-02T06:44:51.889Z,100380.31
2022-09-02T06:47:54.384Z,100384.59
2022-09-02T06:50:57.782Z,100372.94
2022-09-02T06:54:01.099Z,100377.75
2022-09-02T06:57:04.593Z,100378.56
2022-09-02T07:00:09.464Z,100377.53
2022-09-02T07:03:31.072Z,100380.31
2022-09-02T07:06:37.642Z,100376.34
2022-09-02T07:09:40.299Z,100380.38
2022-09-02T07:12:44.427Z,100380.41
2022-09-02T07:15:47.377Z,100380.44
2022-09-02T07:18:49.927Z,100374.72
2022-09-02T07:21:52.306Z,100385.53
2022-09-02T07:24:56.069Z,100382.97
2022-09-02T07:28:00.571Z,100381.56
2022-09-02T07:31:09.081Z,100377.59
2022-09-02T07:34:13.172Z,100379.50
2022-09-02T07:37:16.142Z,100375.06
2022-09-02T07:40:18.609Z,100379.37
2022-09-02T07:43:22.532Z,100388.66
2022-09-02T07:46:25.318Z,100375.28
2022-09-02T07:49:28.108Z,100378.81
2022-09-02T07:52:30.644Z,100375.38
2022-09-02T07:55:41.058Z,100375.28
2022-09-02T07:58:45.667Z,100362.81
2022-09-02T08:01:48.918Z,100371.97
2022-09-02T08:04:51.981Z,100377.13
2022-09-02T08:07:54.605Z,100370.53
2022-09-02T08:10:57.501Z,100371.78
2022-09-02T08:14:00.646Z,100377.28
2022-09-02T08:17:03.318Z,100376.50
2022-09-02T08:20:09.244Z,100376.31
2022-09-02T08:23:35.661Z,100368.03
2022-09-02T08:26:37.310Z,100369.25
2022-09-02T08:29:39.882Z,100371.81
2022-09-02T08:32:42.557Z,100370.03
2022-09-02T08:35:45.120Z,100366.81
2022-09-02T08:38:47.871Z,100364.81
2022-09-02T08:45:12.576Z,100358.87
2022-09-02T08:48:42.739Z,100363.78
2022-09-02T08:51:53.841Z,100350.38
2022-09-02T08:54:56.510Z,100356.53
2022-09-02T08:57:58.938Z,100362.56
2022-09-02T09:01:18.323Z,100364.97
2022-09-02T09:04:39.982Z,100360.00
2022-09-02T09:08:13.930Z,100358.75
2022-09-02T09:11:52.147Z,100361.19
2022-09-02T09:15:13.156Z,100360.25
2022-09-02T09:18:24.218Z,100351.59
2022-09-02T09:21:27.082Z,100353.50
2022-09-02T09:24:41.708Z,100352.31
2022-09-02T09:27:46.169Z,100350.25
2022-09-02T09:30:48.317Z,100346.50
2022-09-02T09:33:59.561Z,100350.66
2022-09-02T09:37:01.723Z,100344.50
2022-09-02T09:40:25.804Z,100339.94
2022-09-02T09:43:31.931Z,100341.69
2022-09-02T09:46:34.319Z,100345.28
2022-09-02T09:49:38.147Z,100345.31
2022-09-02T09:52:41.898Z,100332.97
2022-09-02T09:55:57.535Z,100335.78
2022-09-02T09:59:00.088Z,100335.13
2022-09-02T10:02:02.317Z,100338.53
2022-09-02T10:05:19.482Z,100328.41
2022-09-02T10:08:27.281Z,100331.34
2022-09-02T10:11:33.119Z,100327.84
2022-09-02T10:14:43.338Z,100333.81
2022-09-02T10:18:05.278Z,100332.59
2022-09-02T10:21:21.791Z,100330.22
2022-09-02T10:24:39.407Z,100329.84
2022-09-02T10:28:06.523Z,100334.94
2022-09-02T10:31:32.200Z,100333.13
2022-09-02T10:35:01.311Z,100330.78
2022-09-02T10:38:22.928Z,100341.00
2022-09-02T10:45:10.572Z,100334.47
2022-09-02T10:48:15.487Z,100327.91
2022-09-02T10:52:11.963Z,100322.25
2022-09-02T10:55:25.956Z,100316.53
2022-09-02T10:58:42.185Z,100322.28
2022-09-02T11:02:00.462Z,100319.00
2022-09-02T11:05:11.881Z,100322.34
2022-09-02T11:08:38.719Z,100320.50
2022-09-02T11:11:52.847Z,100324.03
2022-09-02T11:15:32.599Z,100316.84
2022-09-02T11:18:50.527Z,100320.56
2022-09-02T11:22:07.277Z,100319.16
2022-09-02T11:25:19.921Z,100320.47
2022-09-02T11:28:38.651Z,100303.75
2022-09-02T11:31:50.647Z,100302.97
2022-09-02T11:34:56.806Z,100301.59
2022-09-02T11:38:02.358Z,100301.28
2022-09-02T11:41:35.565Z,100302.66
2022-09-02T11:45:00.743Z,100291.41
2022-09-02T11:48:33.163Z,100293.72
2022-09-02T11:51:51.831Z,100289.31
2022-09-02T11:55:20.505Z,100287.31
2022-09-02T11:58:35.106Z,100274.66
2022-09-02T12:01:51.336Z,100279.22
2022-09-02T12:05:35.478Z,100275.94
2022-09-02T12:08:44.975Z,100267.94
2022-09-02T12:11:49.787Z,100272.47
2022-09-02T12:14:54.983Z,100274.69
2022-09-02T12:18:00.336Z,100270.19
2022-09-02T12:21:08.455Z,100271.91
2022-09-02T12:24:21.794Z,100276.41
2022-09-02T12:27:30.188Z,100270.13
2022-09-02T12:30:56.197Z,100266.31
2022-09-02T12:34:02.177Z,100265.59
2022-09-02T12:37:04.629Z,100265.22
2022-09-02T12:40:19.320Z,100264.28
2022-09-02T12:43:29.947Z,100260.81
2022-09-02T12:46:45.265Z,100266.84
2022-09-02T12:50:03.528Z,100262.03
2022-09-02T12:53:11.150Z,100257.28
2022-09-02T12:56:13.425Z,100255.91
2022-09-02T12:59:31.748Z,100245.50
2022-09-02T13:02:42.294Z,100241.78
2022-09-02T13:05:56.253Z,100240.41
2022-09-02T13:09:13.497Z,100244.78
2022-09-02T13:12:52.416Z,100247.78
2022-09-02T13:16:10.057Z,100243.63
2022-09-02T13:19:52.242Z,100233.72
2022-09-02T13:23:32.021Z,100243.19
2022-09-02T13:26:48.862Z,100236.94
2022-09-02T13:30:25.519Z,100228.84
2022-09-02T13:33:27.932Z,100238.59
2022-09-02T13:36:35.887Z,100234.44
2022-09-02T13:39:38.231Z,100234.56
2022-09-02T13:43:09.707Z,100229.91
2022-09-02T13:46:11.887Z,100230.97
2022-09-02T13:49:37.333Z,100219.72
2022-09-02T13:56:07.997Z,100223.47
2022-09-02T13:59:10.148Z,100217.44
2022-09-02T14:02:27.278Z,100206.00
2022-09-02T14:05:33.075Z,100213.75
2022-09-02T14:08:35.523Z,100211.91
2022-09-02T14:11:45.635Z,100210.94
2022-09-02T14:14:48.277Z,100214.97
2022-09-02T14:18:17.932Z,100207.59
2022-09-02T14:21:23.778Z,100215.69
2022-09-02T14:24:29.120Z,100220.41
2022-09-02T14:27:31.278Z,100221.16
2022-09-02T14:30:39.535Z,100217.66
2022-09-02T14:33:42.747Z,100229.19
2022-09-02T14:36:45.045Z,100216.34
2022-09-02T14:40:12.023Z,100216.94
2022-09-02T14:43:17.425Z,100223.19
2022-09-02T14:46:32.654Z,100220.06
2022-09-02T14:49:45.967Z,100217.84
2022-09-02T14:52:52.668Z,100219.38
2022-09-02T14:55:56.543Z,100221.88
2022-09-02T14:58:58.665Z,100228.00
2022-09-02T15:02:01.153Z,100231.25
2022-09-02T15:05:06.305Z,100228.94
2022-09-02T15:08:09.221Z,100228.72
2022-09-02T15:11:14.510Z,100235.72
2022-09-02T15:14:17.183Z,100246.59
2022-09-02T15:17:20.859Z,100248.13
2022-09-02T15:20:24.513Z,100247.84
2022-09-02T15:23:27.309Z,100258.63
2022-09-02T15:26:31.064Z,100247.91
2022-09-02T15:29:33.187Z,100246.75
2022-09-02T15:32:36.750Z,100246.75
2022-09-02T15:35:38.893Z,100244.50
2022-09-02T15:38:41.319Z,100248.53
2022-09-02T15:41:44.631Z,100251.81
2022-09-02T15:44:47.717Z,100263.34
2022-09-02T15:47:49.853Z,100269.12
2022-09-02T15:50:54.524Z,100265.19
2022-09-02T15:53:58.415Z,100265.88
2022-09-02T15:57:00.845Z,100268.53
2022-09-02T16:00:06.793Z,100271.75
2022-09-02T16:03:13.563Z,100274.84
2022-09-02T16:06:15.963Z,100281.69
2022-09-02T16:09:18.747Z,100287.38
2022-09-02T16:12:21.144Z,100281.69
2022-09-02T16:15:23.277Z,100279.00
2022-09-02T16:18:25.636Z,100286.16
2022-09-02T16:21:28.788Z,100291.97
2022-09-02T16:24:31.593Z,100289.94
2022-09-02T16:27:52.052Z,100301.37
2022-09-02T16:30:54.469Z,100301.37
2022-09-02T16:34:18.082Z,100301.84
2022-09-02T16:37:20.482Z,100303.88
2022-09-02T16:40:22.623Z,100304.44
2022-09-02T16:43:25.503Z,100304.09
2022-09-02T16:46:28.984Z,100308.72
2022-09-02T16:49:31.932Z,100308.19
2022-09-02T16:52:35.101Z,100306.84
2022-09-02T16:55:44.825Z,100306.28
2022-09-02T16:58:47.123Z,100311.28
2022-09-02T17:01:49.600Z,100309.06
2022-09-02T17:04:51.778Z,100315.59
2022-09-02T17:07:58.232Z,100323.06
2022-09-02T17:11:21.928Z,100321.91
2022-09-02T17:14:24.322Z,100317.38
2022-09-02T17:17:26.477Z,100317.84
2022-09-02T17:20:28.881Z,100325.00
2022-09-02T17:23:31.005Z,100316.38
2022-09-02T17:26:35.462Z,100321.72
2022-09-02T17:29:54.399Z,100318.00
2022-09-02T17:32:58.357Z,100320.84
2022-09-02T17:36:01.545Z,100316.44
2022-09-02T17:39:16.331Z,100320.69
2022-09-02T17:42:18.907Z,100317.47
2022-09-02T17:45:21.311Z,100317.88
2022-09-02T17:48:37.294Z,100312.56
2022-09-02T17:51:42.566Z,100318.50
2022-09-02T17:54:48.882Z,100330.47
2022-09-02T17:58:05.397Z,100321.38
2022-09-02T18:01:13.363Z,100328.22
2022-09-02T18:04:18.923Z,100334.09
2022-09-02T18:07:39.098Z,100332.69
2022-09-02T18:10:57.866Z,100331.44
2022-09-02T18:14:00.264Z,100335.22
2022-09-02T18:17:27.605Z,100331.56
2022-09-02T18:20:43.772Z,100330.22
2022-09-02T18:23:59.931Z,100334.94
2022-09-02T18:27:11.614Z,100337.91
2022-09-02T18:30:34.662Z,100334.47
2022-09-02T18:33:47.030Z,100338.13
2022-09-02T18:36:59.276Z,100329.22
2022-09-02T18:40:37.606Z,100329.09
2022-09-02T18:44:10.823Z,100340.75
2022-09-02T18:47:17.207Z,100332.69
2022-09-02T18:50:45.295Z,100330.34
2022-09-02T18:53:54.211Z,100336.72
2022-09-02T18:57:05.247Z,100333.91
2022-09-02T19:00:10.453Z,100342.09
2022-09-02T19:03:12.887Z,100342.84
2022-09-02T19:06:24.634Z,100347.59
2022-09-02T19:09:27.042Z,100344.41
2022-09-02T19:12:33.779Z,100347.19
2022-09-02T19:15:37.551Z,100348.91
2022-09-02T19:18:39.903Z,100354.75
2022-09-02T19:21:47.151Z,100359.91
2022-09-02T19:24:57.127Z,100350.00
2022-09-02T19:28:02.595Z,100349.84
2022-09-02T19:31:04.915Z,100361.44
2022-09-02T19:34:08.250Z,100366.31
2022-09-02T19:37:13.322Z,100360.19
2022-09-02T19:40:30.723Z,100367.75
2022-09-02T19:43:35.835Z,100363.69
2022-09-02T19:50:03.266Z,100357.47
2022-09-02T19:53:06.652Z,100353.59
2022-09-02T19:56:08.955Z,100363.38
2022-09-02T19:59:11.502Z,100354.66
2022-09-02T20:02:14.581Z,100356.06
2022-09-02T20:05:17.178Z,100361.78
2022-09-02T20:08:20.094Z,100355.25
2022-09-02T20:11:22.542Z,100361.53
2022-09-02T20:14:26.219Z,100360.56
2022-09-02T20:17:28.944Z,100350.16
2022-09-02T20:20:31.780Z,100356.81
2022-09-02T20:23:34.149Z,100367.41
2022-09-02T20:26:50.590Z,100370.19
2022-09-02T20:30:05.618Z,100364.19
2022-09-02T20:33:19.226Z,100367.13
2022-09-02T20:36:33.196Z,100369.09
2022-09-02T20:39:52.099Z,100366.72
2022-09-02T20:43:12.629Z,100364.91
2022-09-02T20:46:30.947Z,100370.41
2022-09-02T20:50:08.803Z,100370.66
2022-09-02T20:53:35.878Z,100373.03
2022-09-02T20:56:56.937Z,100369.84
2022-09-02T21:00:12.405Z,100373.75
2022-09-02T21:03:17.531Z,100379.03
2022-09-02T21:06:24.211Z,100381.88
2022-09-02T21:09:45.335Z,100379.37
2022-09-02T21:12:52.554Z,100372.41
2022-09-02T21:15:58.351Z,100370.03
2022-09-02T21:19:16.988Z,100374.41
2022-09-02T21:22:21.725Z,100366.69
2022-09-02T21:25:32.496Z,100372.25
2022-09-02T21:28:34.924Z,100366.00
2022-09-02T21:31:48.560Z,100369.94
2022-09-02T21:34:57.992Z,100373.69
2022-09-02T21:38:09.055Z,100368.31
2022-09-02T21:41:20.557Z,100373.03
2022-09-02T21:44:31.425Z,100369.03
2022-09-02T21:47:47.262Z,100374.72
2022-09-02T21:50:53.031Z,100368.50
2022-09-02T21:54:08.473Z,100370.69
2022-09-02T21:57:29.106Z,100373.34
2022-09-02T22:00:31.571Z,100385.06
2022-09-02T22:03:42.237Z,100372.59
2022-09-02T22:06:51.424Z,100389.50
2022-09-02T22:10:12.754Z,100377.06
2022-09-02T22:13:15.373Z,100370.56
2022-09-02T22:16:32.744Z,100372.59
2022-09-02T22:19:39.131Z,100366.97
2022-09-02T22:22:47.578Z,100364.44
2022-09-02T22:25:55.547Z,100372.94
2022-09-02T22:29:05.344Z,100376.22
2022-09-02T22:32:10.379Z,100368.78
2022-09-02T22:35:41.193Z,100368.22
2022-09-02T22:38:48.008Z,100368.97
2022-09-02T22:42:04.146Z,100364.03
2022-09-02T22:45:28.179Z,100357.94
2022-09-02T22:48:56.432Z,100354.47
2022-09-02T22:52:26.885Z,100360.56
2022-09-02T22:55:42.601Z,100354.12
2022-09-02T22:59:20.074Z,100360.72
2022-09-02T23:02:35.169Z,100349.19
2022-09-02T23:06:19.867Z,100347.28
2022-09-02T23:09:22.324Z,100346.91
2022-09-02T23:12:41.300Z,100343.75
2022-09-02T23:16:11.869Z,100339.78
2022-09-02T23:19:31.564Z,100343.13
2022-09-02T23:22:43.258Z,100337.78
2022-09-02T23:26:09.455Z,100339.84
2022-09-02T23:29:15.674Z,100340.66
2022-09-02T23:32:43.336Z,100337.19
2022-09-02T23:35:53.651Z,100335.19
2022-09-02T23:39:19.037Z,100334.69
2022-09-02T23:42:22.045Z,100337.44
2022-09-02T23:45:30.095Z,100341.25
2022-09-02T23:48:59.622Z,100333.59
2022-09-02T23:52:21.256Z,100333.59
2022-09-02T23:55:39.136Z,100335.84
2022-09-02T23:59:08.035Z,100341.13
